<?xml version="1.0" encoding="UTF-8"?>
<gpx xmlns="http://www.topografix.com/GPX/1/1" xmlns:xsi="http://www.w3.org/2001/XMLSchema-instance" version="1.1" xsi:schemaLocation="http://www.topografix.com/GPX/1/1 http://www.topografix.com/GPX/1/1/gpx.xsd">
  <metadata>
    <name>HTC Sprint Tri</name>
  </metadata>
  <trk>
    <name>HTC Sprint Tri</name>
    <trkseg>
      <trkpt lat="52.447967" lon="-2.048501">
        <ele>127.730551</ele>
        <time>2023-04-02T08:08:00.000Z</time>
      </trkpt>
      <trkpt lat="52.447978" lon="-2.048525">
        <ele>127.730554</ele>
        <time>2023-04-02T08:08:00.000Z</time>
      </trkpt>
      <trkpt lat="52.448057" lon="-2.048884">
        <ele>127.730542</ele>
        <time>2023-04-02T08:08:03.000Z</time>
      </trkpt>
      <trkpt lat="52.448086" lon="-2.049201">
        <ele>127.730537</ele>
        <time>2023-04-02T08:08:05.000Z</time>
      </trkpt>
      <trkpt lat="52.448045" lon="-2.049451">
        <ele>127.730544</ele>
        <time>2023-04-02T08:08:07.000Z</time>
      </trkpt>
      <trkpt lat="52.448271" lon="-2.049553">
        <ele>127.730551</ele>
        <time>2023-04-02T08:08:10.000Z</time>
      </trkpt>
      <trkpt lat="52.448395" lon="-2.049561">
        <ele>127.612056</ele>
        <time>2023-04-02T08:08:11.000Z</time>
      </trkpt>
      <trkpt lat="52.448474" lon="-2.049526">
        <ele>127.396806</ele>
        <time>2023-04-02T08:08:12.000Z</time>
      </trkpt>
      <trkpt lat="52.44862" lon="-2.049428">
        <ele>127.045098</ele>
        <time>2023-04-02T08:08:14.000Z</time>
      </trkpt>
      <trkpt lat="52.448911" lon="-2.04912">
        <ele>126.256713</ele>
        <time>2023-04-02T08:08:18.000Z</time>
      </trkpt>
      <trkpt lat="52.448941" lon="-2.049093">
        <ele>126.174813</ele>
        <time>2023-04-02T08:08:18.000Z</time>
      </trkpt>
      <trkpt lat="52.44904" lon="-2.049004">
        <ele>125.90015</ele>
        <time>2023-04-02T08:08:19.000Z</time>
      </trkpt>
      <trkpt lat="52.449348" lon="-2.04874">
        <ele>125.103657</ele>
        <time>2023-04-02T08:08:23.000Z</time>
      </trkpt>
      <trkpt lat="52.449481" lon="-2.048633">
        <ele>124.751955</ele>
        <time>2023-04-02T08:08:25.000Z</time>
      </trkpt>
      <trkpt lat="52.44957" lon="-2.048628">
        <ele>124.567181</ele>
        <time>2023-04-02T08:08:26.000Z</time>
      </trkpt>
      <trkpt lat="52.449567" lon="-2.048626">
        <ele>124.551634</ele>
        <time>2023-04-02T08:08:26.000Z</time>
      </trkpt>
      <trkpt lat="52.449818" lon="-2.048888">
        <ele>123.866785</ele>
        <time>2023-04-02T08:08:29.000Z</time>
      </trkpt>
      <trkpt lat="52.449985" lon="-2.04896">
        <ele>123.554413</ele>
        <time>2023-04-02T08:08:31.000Z</time>
      </trkpt>
      <trkpt lat="52.450314" lon="-2.048944">
        <ele>123.361509</ele>
        <time>2023-04-02T08:08:35.000Z</time>
      </trkpt>
      <trkpt lat="52.45073" lon="-2.049045">
        <ele>123.119298</ele>
        <time>2023-04-02T08:08:40.000Z</time>
      </trkpt>
      <trkpt lat="52.450902" lon="-2.049057">
        <ele>123.015897</ele>
        <time>2023-04-02T08:08:42.000Z</time>
      </trkpt>
      <trkpt lat="52.450971" lon="-2.04906">
        <ele>122.974951</ele>
        <time>2023-04-02T08:08:43.000Z</time>
      </trkpt>
      <trkpt lat="52.451081" lon="-2.049069">
        <ele>122.919606</ele>
        <time>2023-04-02T08:08:44.000Z</time>
      </trkpt>
      <trkpt lat="52.45128" lon="-2.049108">
        <ele>122.798587</ele>
        <time>2023-04-02T08:08:46.000Z</time>
      </trkpt>
      <trkpt lat="52.451509" lon="-2.049148">
        <ele>122.663986</ele>
        <time>2023-04-02T08:08:49.000Z</time>
      </trkpt>
      <trkpt lat="52.451589" lon="-2.04931">
        <ele>122.595123</ele>
        <time>2023-04-02T08:08:50.000Z</time>
      </trkpt>
      <trkpt lat="52.451545" lon="-2.049539">
        <ele>122.636225</ele>
        <time>2023-04-02T08:08:52.000Z</time>
      </trkpt>
      <trkpt lat="52.45141" lon="-2.050565">
        <ele>123.930463</ele>
        <time>2023-04-02T08:08:59.000Z</time>
      </trkpt>
      <trkpt lat="52.451368" lon="-2.051382">
        <ele>124.920843</ele>
        <time>2023-04-02T08:09:05.000Z</time>
      </trkpt>
      <trkpt lat="52.451267" lon="-2.051618">
        <ele>125.282704</ele>
        <time>2023-04-02T08:09:07.000Z</time>
      </trkpt>
      <trkpt lat="52.451038" lon="-2.051839">
        <ele>125.818777</ele>
        <time>2023-04-02T08:09:10.000Z</time>
      </trkpt>
      <trkpt lat="52.450899" lon="-2.05184">
        <ele>126.084432</ele>
        <time>2023-04-02T08:09:12.000Z</time>
      </trkpt>
      <trkpt lat="52.450774" lon="-2.051679">
        <ele>126.246487</ele>
        <time>2023-04-02T08:09:14.000Z</time>
      </trkpt>
      <trkpt lat="52.450694" lon="-2.051457">
        <ele>126.389139</ele>
        <time>2023-04-02T08:09:16.000Z</time>
      </trkpt>
      <trkpt lat="52.450582" lon="-2.051018">
        <ele>126.650864</ele>
        <time>2023-04-02T08:09:19.000Z</time>
      </trkpt>
      <trkpt lat="52.450517" lon="-2.050794">
        <ele>126.782032</ele>
        <time>2023-04-02T08:09:21.000Z</time>
      </trkpt>
      <trkpt lat="52.450398" lon="-2.050543">
        <ele>126.948413</ele>
        <time>2023-04-02T08:09:23.000Z</time>
      </trkpt>
      <trkpt lat="52.450358" lon="-2.050475">
        <ele>127.008544</ele>
        <time>2023-04-02T08:09:24.000Z</time>
      </trkpt>
      <trkpt lat="52.450322" lon="-2.05042">
        <ele>127.050118</ele>
        <time>2023-04-02T08:09:25.000Z</time>
      </trkpt>
      <trkpt lat="52.450187" lon="-2.050387">
        <ele>127.162309</ele>
        <time>2023-04-02T08:09:27.000Z</time>
      </trkpt>
      <trkpt lat="52.449943" lon="-2.050404">
        <ele>127.385695</ele>
        <time>2023-04-02T08:09:30.000Z</time>
      </trkpt>
      <trkpt lat="52.449918" lon="-2.05044">
        <ele>127.41584</ele>
        <time>2023-04-02T08:09:30.000Z</time>
      </trkpt>
      <trkpt lat="52.449848" lon="-2.050542">
        <ele>127.493253</ele>
        <time>2023-04-02T08:09:31.000Z</time>
      </trkpt>
      <trkpt lat="52.449806" lon="-2.050698">
        <ele>127.587257</ele>
        <time>2023-04-02T08:09:32.000Z</time>
      </trkpt>
      <trkpt lat="52.449803" lon="-2.051025">
        <ele>127.797698</ele>
        <time>2023-04-02T08:09:34.000Z</time>
      </trkpt>
      <trkpt lat="52.449776" lon="-2.051315">
        <ele>128.056364</ele>
        <time>2023-04-02T08:09:36.000Z</time>
      </trkpt>
      <trkpt lat="52.449732" lon="-2.051505">
        <ele>128.25471</ele>
        <time>2023-04-02T08:09:37.000Z</time>
      </trkpt>
      <trkpt lat="52.449596" lon="-2.051814">
        <ele>128.611035</ele>
        <time>2023-04-02T08:09:40.000Z</time>
      </trkpt>
      <trkpt lat="52.449504" lon="-2.051963">
        <ele>128.799518</ele>
        <time>2023-04-02T08:09:41.000Z</time>
      </trkpt>
      <trkpt lat="52.44924" lon="-2.052431">
        <ele>129.387477</ele>
        <time>2023-04-02T08:09:45.000Z</time>
      </trkpt>
      <trkpt lat="52.449035" lon="-2.052997">
        <ele>129.980545</ele>
        <time>2023-04-02T08:09:49.000Z</time>
      </trkpt>
      <trkpt lat="52.449001" lon="-2.05315">
        <ele>130.133463</ele>
        <time>2023-04-02T08:09:50.000Z</time>
      </trkpt>
      <trkpt lat="52.448984" lon="-2.053259">
        <ele>130.243473</ele>
        <time>2023-04-02T08:09:51.000Z</time>
      </trkpt>
      <trkpt lat="52.448843" lon="-2.053526">
        <ele>130.630369</ele>
        <time>2023-04-02T08:09:53.000Z</time>
      </trkpt>
      <trkpt lat="52.448676" lon="-2.053619">
        <ele>131.076479</ele>
        <time>2023-04-02T08:09:55.000Z</time>
      </trkpt>
      <trkpt lat="52.448523" lon="-2.053582">
        <ele>131.515557</ele>
        <time>2023-04-02T08:09:57.000Z</time>
      </trkpt>
      <trkpt lat="52.44845" lon="-2.053499">
        <ele>131.716479</ele>
        <time>2023-04-02T08:09:58.000Z</time>
      </trkpt>
      <trkpt lat="52.448289" lon="-2.053223">
        <ele>132.336912</ele>
        <time>2023-04-02T08:10:01.000Z</time>
      </trkpt>
      <trkpt lat="52.448106" lon="-2.05288">
        <ele>133.04517</ele>
        <time>2023-04-02T08:10:04.000Z</time>
      </trkpt>
      <trkpt lat="52.447959" lon="-2.052657">
        <ele>133.576264</ele>
        <time>2023-04-02T08:10:06.000Z</time>
      </trkpt>
      <trkpt lat="52.447936" lon="-2.052649">
        <ele>133.610085</ele>
        <time>2023-04-02T08:10:06.000Z</time>
      </trkpt>
      <trkpt lat="52.447728" lon="-2.052339">
        <ele>134.343281</ele>
        <time>2023-04-02T08:10:09.000Z</time>
      </trkpt>
      <trkpt lat="52.447725" lon="-2.052289">
        <ele>134.415292</ele>
        <time>2023-04-02T08:10:09.000Z</time>
      </trkpt>
      <trkpt lat="52.447715" lon="-2.052138">
        <ele>134.656073</ele>
        <time>2023-04-02T08:10:10.000Z</time>
      </trkpt>
      <trkpt lat="52.447621" lon="-2.052001">
        <ele>134.999815</ele>
        <time>2023-04-02T08:10:11.000Z</time>
      </trkpt>
      <trkpt lat="52.447532" lon="-2.051978">
        <ele>135.333225</ele>
        <time>2023-04-02T08:10:12.000Z</time>
      </trkpt>
      <trkpt lat="52.447439" lon="-2.052033">
        <ele>135.92454</ele>
        <time>2023-04-02T08:10:13.000Z</time>
      </trkpt>
      <trkpt lat="52.447354" lon="-2.05218">
        <ele>136.51879</ele>
        <time>2023-04-02T08:10:14.000Z</time>
      </trkpt>
      <trkpt lat="52.447359" lon="-2.052386">
        <ele>137.145853</ele>
        <time>2023-04-02T08:10:15.000Z</time>
      </trkpt>
      <trkpt lat="52.447392" lon="-2.052469">
        <ele>137.461041</ele>
        <time>2023-04-02T08:10:16.000Z</time>
      </trkpt>
      <trkpt lat="52.447445" lon="-2.052541">
        <ele>137.819627</ele>
        <time>2023-04-02T08:10:17.000Z</time>
      </trkpt>
      <trkpt lat="52.447214" lon="-2.053107">
        <ele>139.964309</ele>
        <time>2023-04-02T08:10:22.000Z</time>
      </trkpt>
      <trkpt lat="52.446858" lon="-2.053703">
        <ele>142.58153</ele>
        <time>2023-04-02T08:10:28.000Z</time>
      </trkpt>
      <trkpt lat="52.446711" lon="-2.053938">
        <ele>143.648835</ele>
        <time>2023-04-02T08:10:30.000Z</time>
      </trkpt>
      <trkpt lat="52.446335" lon="-2.054445">
        <ele>145.99115</ele>
        <time>2023-04-02T08:10:35.000Z</time>
      </trkpt>
      <trkpt lat="52.445984" lon="-2.054941">
        <ele>148.147522</ele>
        <time>2023-04-02T08:10:40.000Z</time>
      </trkpt>
      <trkpt lat="52.445492" lon="-2.055682">
        <ele>151.299954</ele>
        <time>2023-04-02T08:10:47.000Z</time>
      </trkpt>
      <trkpt lat="52.445002" lon="-2.056528">
        <ele>153.734081</ele>
        <time>2023-04-02T08:10:55.000Z</time>
      </trkpt>
      <trkpt lat="52.444923" lon="-2.056703">
        <ele>154.076336</ele>
        <time>2023-04-02T08:10:56.000Z</time>
      </trkpt>
      <trkpt lat="52.444606" lon="-2.057369">
        <ele>155.330584</ele>
        <time>2023-04-02T08:11:02.000Z</time>
      </trkpt>
      <trkpt lat="52.44449" lon="-2.057666">
        <ele>155.845345</ele>
        <time>2023-04-02T08:11:04.000Z</time>
      </trkpt>
      <trkpt lat="52.444363" lon="-2.058121">
        <ele>156.585755</ele>
        <time>2023-04-02T08:11:07.000Z</time>
      </trkpt>
      <trkpt lat="52.444303" lon="-2.058392">
        <ele>157.026492</ele>
        <time>2023-04-02T08:11:09.000Z</time>
      </trkpt>
      <trkpt lat="52.444254" lon="-2.058856">
        <ele>157.933679</ele>
        <time>2023-04-02T08:11:12.000Z</time>
      </trkpt>
      <trkpt lat="52.444219" lon="-2.059568">
        <ele>159.411619</ele>
        <time>2023-04-02T08:11:17.000Z</time>
      </trkpt>
      <trkpt lat="52.44427" lon="-2.060352">
        <ele>161.021281</ele>
        <time>2023-04-02T08:11:22.000Z</time>
      </trkpt>
      <trkpt lat="52.444302" lon="-2.06089">
        <ele>162.160614</ele>
        <time>2023-04-02T08:11:26.000Z</time>
      </trkpt>
      <trkpt lat="52.444338" lon="-2.061658">
        <ele>163.30852</ele>
        <time>2023-04-02T08:11:31.000Z</time>
      </trkpt>
      <trkpt lat="52.44434" lon="-2.061719">
        <ele>163.329254</ele>
        <time>2023-04-02T08:11:31.000Z</time>
      </trkpt>
      <trkpt lat="52.444234" lon="-2.062336">
        <ele>163.55808</ele>
        <time>2023-04-02T08:11:35.000Z</time>
      </trkpt>
      <trkpt lat="52.444095" lon="-2.063002">
        <ele>163.808978</ele>
        <time>2023-04-02T08:11:40.000Z</time>
      </trkpt>
      <trkpt lat="52.443921" lon="-2.063564">
        <ele>164.03293</ele>
        <time>2023-04-02T08:11:44.000Z</time>
      </trkpt>
      <trkpt lat="52.443723" lon="-2.063904">
        <ele>164.205537</ele>
        <time>2023-04-02T08:11:47.000Z</time>
      </trkpt>
      <trkpt lat="52.4431" lon="-2.065001">
        <ele>162.127651</ele>
        <time>2023-04-02T08:11:57.000Z</time>
      </trkpt>
      <trkpt lat="52.442959" lon="-2.065269">
        <ele>161.58601</ele>
        <time>2023-04-02T08:11:59.000Z</time>
      </trkpt>
      <trkpt lat="52.442869" lon="-2.065589">
        <ele>161.008548</ele>
        <time>2023-04-02T08:12:01.000Z</time>
      </trkpt>
      <trkpt lat="52.442783" lon="-2.065993">
        <ele>160.29759</ele>
        <time>2023-04-02T08:12:04.000Z</time>
      </trkpt>
      <trkpt lat="52.44258" lon="-2.066786">
        <ele>158.758047</ele>
        <time>2023-04-02T08:12:10.000Z</time>
      </trkpt>
      <trkpt lat="52.442543" lon="-2.066894">
        <ele>158.504566</ele>
        <time>2023-04-02T08:12:11.000Z</time>
      </trkpt>
      <trkpt lat="52.442515" lon="-2.066973">
        <ele>158.307635</ele>
        <time>2023-04-02T08:12:12.000Z</time>
      </trkpt>
      <trkpt lat="52.442339" lon="-2.067551">
        <ele>156.9465</ele>
        <time>2023-04-02T08:12:16.000Z</time>
      </trkpt>
      <trkpt lat="52.442271" lon="-2.06767">
        <ele>156.594681</ele>
        <time>2023-04-02T08:12:17.000Z</time>
      </trkpt>
      <trkpt lat="52.442069" lon="-2.068054">
        <ele>155.548546</ele>
        <time>2023-04-02T08:12:20.000Z</time>
      </trkpt>
      <trkpt lat="52.441891" lon="-2.068328">
        <ele>154.741233</ele>
        <time>2023-04-02T08:12:23.000Z</time>
      </trkpt>
      <trkpt lat="52.441783" lon="-2.068476">
        <ele>154.242365</ele>
        <time>2023-04-02T08:12:25.000Z</time>
      </trkpt>
      <trkpt lat="52.441619" lon="-2.068726">
        <ele>153.456065</ele>
        <time>2023-04-02T08:12:27.000Z</time>
      </trkpt>
      <trkpt lat="52.441317" lon="-2.06912">
        <ele>152.447931</ele>
        <time>2023-04-02T08:12:31.000Z</time>
      </trkpt>
      <trkpt lat="52.44123" lon="-2.069242">
        <ele>152.126161</ele>
        <time>2023-04-02T08:12:32.000Z</time>
      </trkpt>
      <trkpt lat="52.440681" lon="-2.069944">
        <ele>150.309643</ele>
        <time>2023-04-02T08:12:40.000Z</time>
      </trkpt>
      <trkpt lat="52.440618" lon="-2.070045">
        <ele>150.044582</ele>
        <time>2023-04-02T08:12:41.000Z</time>
      </trkpt>
      <trkpt lat="52.440373" lon="-2.070529">
        <ele>149.054869</ele>
        <time>2023-04-02T08:12:45.000Z</time>
      </trkpt>
      <trkpt lat="52.43977" lon="-2.072205">
        <ele>148.822092</ele>
        <time>2023-04-02T08:12:58.000Z</time>
      </trkpt>
      <trkpt lat="52.439357" lon="-2.073378">
        <ele>149.069915</ele>
        <time>2023-04-02T08:13:07.000Z</time>
      </trkpt>
      <trkpt lat="52.438866" lon="-2.074682">
        <ele>150.9952</ele>
        <time>2023-04-02T08:13:17.000Z</time>
      </trkpt>
      <trkpt lat="52.438466" lon="-2.07566">
        <ele>152.465269</ele>
        <time>2023-04-02T08:13:25.000Z</time>
      </trkpt>
      <trkpt lat="52.43836" lon="-2.075874">
        <ele>152.812085</ele>
        <time>2023-04-02T08:13:27.000Z</time>
      </trkpt>
      <trkpt lat="52.437906" lon="-2.076554">
        <ele>153.848681</ele>
        <time>2023-04-02T08:13:34.000Z</time>
      </trkpt>
      <trkpt lat="52.437841" lon="-2.076646">
        <ele>153.996696</ele>
        <time>2023-04-02T08:13:35.000Z</time>
      </trkpt>
      <trkpt lat="52.437708" lon="-2.076857">
        <ele>154.32454</ele>
        <time>2023-04-02T08:13:37.000Z</time>
      </trkpt>
      <trkpt lat="52.437524" lon="-2.077006">
        <ele>154.680354</ele>
        <time>2023-04-02T08:13:39.000Z</time>
      </trkpt>
      <trkpt lat="52.437484" lon="-2.07704">
        <ele>154.730069</ele>
        <time>2023-04-02T08:13:40.000Z</time>
      </trkpt>
      <trkpt lat="52.437237" lon="-2.077057">
        <ele>155.163407</ele>
        <time>2023-04-02T08:13:43.000Z</time>
      </trkpt>
      <trkpt lat="52.437095" lon="-2.077014">
        <ele>155.410803</ele>
        <time>2023-04-02T08:13:45.000Z</time>
      </trkpt>
      <trkpt lat="52.437045" lon="-2.07695">
        <ele>155.529121</ele>
        <time>2023-04-02T08:13:46.000Z</time>
      </trkpt>
      <trkpt lat="52.436939" lon="-2.076916">
        <ele>155.700154</ele>
        <time>2023-04-02T08:13:47.000Z</time>
      </trkpt>
      <trkpt lat="52.436857" lon="-2.076941">
        <ele>155.887848</ele>
        <time>2023-04-02T08:13:48.000Z</time>
      </trkpt>
      <trkpt lat="52.436743" lon="-2.077124">
        <ele>156.352872</ele>
        <time>2023-04-02T08:13:50.000Z</time>
      </trkpt>
      <trkpt lat="52.436746" lon="-2.077283">
        <ele>156.663792</ele>
        <time>2023-04-02T08:13:51.000Z</time>
      </trkpt>
      <trkpt lat="52.436695" lon="-2.077613">
        <ele>157.279262</ele>
        <time>2023-04-02T08:13:53.000Z</time>
      </trkpt>
      <trkpt lat="52.436602" lon="-2.078079">
        <ele>158.169941</ele>
        <time>2023-04-02T08:13:56.000Z</time>
      </trkpt>
      <trkpt lat="52.436168" lon="-2.079502">
        <ele>161.021544</ele>
        <time>2023-04-02T08:14:07.000Z</time>
      </trkpt>
      <trkpt lat="52.435746" lon="-2.081265">
        <ele>164.663347</ele>
        <time>2023-04-02T08:14:20.000Z</time>
      </trkpt>
      <trkpt lat="52.435368" lon="-2.082988">
        <ele>167.678904</ele>
        <time>2023-04-02T08:14:32.000Z</time>
      </trkpt>
      <trkpt lat="52.434976" lon="-2.08524">
        <ele>170.520717</ele>
        <time>2023-04-02T08:14:48.000Z</time>
      </trkpt>
      <trkpt lat="52.434935" lon="-2.085567">
        <ele>170.856431</ele>
        <time>2023-04-02T08:14:50.000Z</time>
      </trkpt>
      <trkpt lat="52.434799" lon="-2.086659">
        <ele>171.958481</ele>
        <time>2023-04-02T08:14:58.000Z</time>
      </trkpt>
      <trkpt lat="52.434264" lon="-2.090514">
        <ele>176.28399</ele>
        <time>2023-04-02T08:15:25.000Z</time>
      </trkpt>
      <trkpt lat="52.434192" lon="-2.091022">
        <ele>176.961426</ele>
        <time>2023-04-02T08:15:29.000Z</time>
      </trkpt>
      <trkpt lat="52.434132" lon="-2.091182">
        <ele>177.298677</ele>
        <time>2023-04-02T08:15:30.000Z</time>
      </trkpt>
      <trkpt lat="52.43404" lon="-2.091368">
        <ele>177.707087</ele>
        <time>2023-04-02T08:15:32.000Z</time>
      </trkpt>
      <trkpt lat="52.433946" lon="-2.091497">
        <ele>178.064323</ele>
        <time>2023-04-02T08:15:33.000Z</time>
      </trkpt>
      <trkpt lat="52.433902" lon="-2.091683">
        <ele>178.415595</ele>
        <time>2023-04-02T08:15:34.000Z</time>
      </trkpt>
      <trkpt lat="52.433933" lon="-2.091886">
        <ele>178.777461</ele>
        <time>2023-04-02T08:15:35.000Z</time>
      </trkpt>
      <trkpt lat="52.433958" lon="-2.092315">
        <ele>179.538606</ele>
        <time>2023-04-02T08:15:38.000Z</time>
      </trkpt>
      <trkpt lat="52.433943" lon="-2.09288">
        <ele>180.530617</ele>
        <time>2023-04-02T08:15:42.000Z</time>
      </trkpt>
      <trkpt lat="52.433682" lon="-2.093937">
        <ele>182.570734</ele>
        <time>2023-04-02T08:15:50.000Z</time>
      </trkpt>
      <trkpt lat="52.432507" lon="-2.098426">
        <ele>190.714528</ele>
        <time>2023-04-02T08:16:23.000Z</time>
      </trkpt>
      <trkpt lat="52.432136" lon="-2.100049">
        <ele>192.011838</ele>
        <time>2023-04-02T08:16:35.000Z</time>
      </trkpt>
      <trkpt lat="52.431894" lon="-2.101387">
        <ele>192.431115</ele>
        <time>2023-04-02T08:16:44.000Z</time>
      </trkpt>
      <trkpt lat="52.431685" lon="-2.102323">
        <ele>192.913118</ele>
        <time>2023-04-02T08:16:51.000Z</time>
      </trkpt>
      <trkpt lat="52.431546" lon="-2.102753">
        <ele>193.236859</ele>
        <time>2023-04-02T08:16:54.000Z</time>
      </trkpt>
      <trkpt lat="52.431301" lon="-2.103384">
        <ele>193.734059</ele>
        <time>2023-04-02T08:16:59.000Z</time>
      </trkpt>
      <trkpt lat="52.430772" lon="-2.104547">
        <ele>194.701455</ele>
        <time>2023-04-02T08:17:09.000Z</time>
      </trkpt>
      <trkpt lat="52.430474" lon="-2.105411">
        <ele>195.325497</ele>
        <time>2023-04-02T08:17:16.000Z</time>
      </trkpt>
      <trkpt lat="52.430311" lon="-2.106203">
        <ele>195.862945</ele>
        <time>2023-04-02T08:17:22.000Z</time>
      </trkpt>
      <trkpt lat="52.43023" lon="-2.106811">
        <ele>196.259374</ele>
        <time>2023-04-02T08:17:26.000Z</time>
      </trkpt>
      <trkpt lat="52.430134" lon="-2.108251">
        <ele>195.608483</ele>
        <time>2023-04-02T08:17:36.000Z</time>
      </trkpt>
      <trkpt lat="52.430087" lon="-2.109304">
        <ele>194.890337</ele>
        <time>2023-04-02T08:17:43.000Z</time>
      </trkpt>
      <trkpt lat="52.430101" lon="-2.109591">
        <ele>194.695359</ele>
        <time>2023-04-02T08:17:45.000Z</time>
      </trkpt>
      <trkpt lat="52.43011" lon="-2.109771">
        <ele>194.568462</ele>
        <time>2023-04-02T08:17:46.000Z</time>
      </trkpt>
      <trkpt lat="52.430148" lon="-2.110049">
        <ele>194.298105</ele>
        <time>2023-04-02T08:17:48.000Z</time>
      </trkpt>
      <trkpt lat="52.430231" lon="-2.110521">
        <ele>193.180192</ele>
        <time>2023-04-02T08:17:51.000Z</time>
      </trkpt>
      <trkpt lat="52.430261" lon="-2.110703">
        <ele>192.755826</ele>
        <time>2023-04-02T08:17:52.000Z</time>
      </trkpt>
      <trkpt lat="52.430259" lon="-2.110883">
        <ele>192.360219</ele>
        <time>2023-04-02T08:17:53.000Z</time>
      </trkpt>
      <trkpt lat="52.430177" lon="-2.111222">
        <ele>191.551889</ele>
        <time>2023-04-02T08:17:55.000Z</time>
      </trkpt>
      <trkpt lat="52.430138" lon="-2.111317">
        <ele>191.290874</ele>
        <time>2023-04-02T08:17:56.000Z</time>
      </trkpt>
      <trkpt lat="52.430106" lon="-2.111487">
        <ele>190.901274</ele>
        <time>2023-04-02T08:17:57.000Z</time>
      </trkpt>
      <trkpt lat="52.430109" lon="-2.111584">
        <ele>190.653955</ele>
        <time>2023-04-02T08:17:58.000Z</time>
      </trkpt>
      <trkpt lat="52.43012" lon="-2.111732">
        <ele>190.310123</ele>
        <time>2023-04-02T08:17:59.000Z</time>
      </trkpt>
      <trkpt lat="52.430125" lon="-2.112009">
        <ele>189.6995</ele>
        <time>2023-04-02T08:18:01.000Z</time>
      </trkpt>
      <trkpt lat="52.430109" lon="-2.112223">
        <ele>189.196194</ele>
        <time>2023-04-02T08:18:02.000Z</time>
      </trkpt>
      <trkpt lat="52.429982" lon="-2.112677">
        <ele>188.073499</ele>
        <time>2023-04-02T08:18:05.000Z</time>
      </trkpt>
      <trkpt lat="52.429528" lon="-2.114691">
        <ele>180.347095</ele>
        <time>2023-04-02T08:18:20.000Z</time>
      </trkpt>
      <trkpt lat="52.428624" lon="-2.11873">
        <ele>161.915334</ele>
        <time>2023-04-02T08:18:49.000Z</time>
      </trkpt>
      <trkpt lat="52.427974" lon="-2.122007">
        <ele>147.334677</ele>
        <time>2023-04-02T08:19:12.000Z</time>
      </trkpt>
      <trkpt lat="52.427594" lon="-2.12348">
        <ele>141.484815</ele>
        <time>2023-04-02T08:19:23.000Z</time>
      </trkpt>
      <trkpt lat="52.427113" lon="-2.125242">
        <ele>136.938491</ele>
        <time>2023-04-02T08:19:36.000Z</time>
      </trkpt>
      <trkpt lat="52.426965" lon="-2.12579">
        <ele>135.773947</ele>
        <time>2023-04-02T08:19:40.000Z</time>
      </trkpt>
      <trkpt lat="52.426695" lon="-2.1268">
        <ele>134.0873</ele>
        <time>2023-04-02T08:19:47.000Z</time>
      </trkpt>
      <trkpt lat="52.426646" lon="-2.127036">
        <ele>134.067519</ele>
        <time>2023-04-02T08:19:49.000Z</time>
      </trkpt>
      <trkpt lat="52.426513" lon="-2.127589">
        <ele>134.02001</ele>
        <time>2023-04-02T08:19:53.000Z</time>
      </trkpt>
      <trkpt lat="52.42623" lon="-2.128191">
        <ele>133.958575</ele>
        <time>2023-04-02T08:19:58.000Z</time>
      </trkpt>
      <trkpt lat="52.425886" lon="-2.128261">
        <ele>133.914705</ele>
        <time>2023-04-02T08:20:02.000Z</time>
      </trkpt>
      <trkpt lat="52.425806" lon="-2.128292">
        <ele>133.902448</ele>
        <time>2023-04-02T08:20:03.000Z</time>
      </trkpt>
      <trkpt lat="52.425119" lon="-2.128297">
        <ele>133.557531</ele>
        <time>2023-04-02T08:20:11.000Z</time>
      </trkpt>
      <trkpt lat="52.42457" lon="-2.128209">
        <ele>133.184091</ele>
        <time>2023-04-02T08:20:17.000Z</time>
      </trkpt>
      <trkpt lat="52.423983" lon="-2.127958">
        <ele>132.757951</ele>
        <time>2023-04-02T08:20:24.000Z</time>
      </trkpt>
      <trkpt lat="52.423859" lon="-2.127837">
        <ele>132.656268</ele>
        <time>2023-04-02T08:20:26.000Z</time>
      </trkpt>
      <trkpt lat="52.423305" lon="-2.12744">
        <ele>131.537091</ele>
        <time>2023-04-02T08:20:33.000Z</time>
      </trkpt>
      <trkpt lat="52.423118" lon="-2.127347">
        <ele>131.127113</ele>
        <time>2023-04-02T08:20:35.000Z</time>
      </trkpt>
      <trkpt lat="52.422176" lon="-2.127035">
        <ele>129.22152</ele>
        <time>2023-04-02T08:20:46.000Z</time>
      </trkpt>
      <trkpt lat="52.421664" lon="-2.126833">
        <ele>129.334366</ele>
        <time>2023-04-02T08:20:52.000Z</time>
      </trkpt>
      <trkpt lat="52.419797" lon="-2.125777">
        <ele>131.572003</ele>
        <time>2023-04-02T08:21:14.000Z</time>
      </trkpt>
      <trkpt lat="52.419195" lon="-2.125322">
        <ele>132.978001</ele>
        <time>2023-04-02T08:21:21.000Z</time>
      </trkpt>
      <trkpt lat="52.418806" lon="-2.1249">
        <ele>133.997567</ele>
        <time>2023-04-02T08:21:26.000Z</time>
      </trkpt>
      <trkpt lat="52.418049" lon="-2.123865">
        <ele>136.116958</ele>
        <time>2023-04-02T08:21:37.000Z</time>
      </trkpt>
      <trkpt lat="52.417037" lon="-2.122784">
        <ele>138.677547</ele>
        <time>2023-04-02T08:21:50.000Z</time>
      </trkpt>
      <trkpt lat="52.415887" lon="-2.12158">
        <ele>141.52402</ele>
        <time>2023-04-02T08:22:05.000Z</time>
      </trkpt>
      <trkpt lat="52.415679" lon="-2.121335">
        <ele>142.328266</ele>
        <time>2023-04-02T08:22:08.000Z</time>
      </trkpt>
      <trkpt lat="52.416138" lon="-2.119947">
        <ele>145.955776</ele>
        <time>2023-04-02T08:22:19.000Z</time>
      </trkpt>
      <trkpt lat="52.416198" lon="-2.119542">
        <ele>146.934335</ele>
        <time>2023-04-02T08:22:22.000Z</time>
      </trkpt>
      <trkpt lat="52.41624" lon="-2.118961">
        <ele>148.238057</ele>
        <time>2023-04-02T08:22:26.000Z</time>
      </trkpt>
      <trkpt lat="52.416381" lon="-2.118275">
        <ele>150.258165</ele>
        <time>2023-04-02T08:22:31.000Z</time>
      </trkpt>
      <trkpt lat="52.41645" lon="-2.117815">
        <ele>151.647773</ele>
        <time>2023-04-02T08:22:34.000Z</time>
      </trkpt>
      <trkpt lat="52.416403" lon="-2.117489">
        <ele>152.565592</ele>
        <time>2023-04-02T08:22:36.000Z</time>
      </trkpt>
      <trkpt lat="52.416335" lon="-2.117261">
        <ele>153.309228</ele>
        <time>2023-04-02T08:22:38.000Z</time>
      </trkpt>
      <trkpt lat="52.416104" lon="-2.116983">
        <ele>154.625416</ele>
        <time>2023-04-02T08:22:41.000Z</time>
      </trkpt>
      <trkpt lat="52.415774" lon="-2.116608">
        <ele>156.545074</ele>
        <time>2023-04-02T08:22:45.000Z</time>
      </trkpt>
      <trkpt lat="52.415586" lon="-2.116264">
        <ele>158.191981</ele>
        <time>2023-04-02T08:22:48.000Z</time>
      </trkpt>
      <trkpt lat="52.415513" lon="-2.116044">
        <ele>159.219259</ele>
        <time>2023-04-02T08:22:50.000Z</time>
      </trkpt>
      <trkpt lat="52.415437" lon="-2.115596">
        <ele>160.988367</ele>
        <time>2023-04-02T08:22:53.000Z</time>
      </trkpt>
      <trkpt lat="52.415409" lon="-2.114679">
        <ele>164.620942</ele>
        <time>2023-04-02T08:22:59.000Z</time>
      </trkpt>
      <trkpt lat="52.415305" lon="-2.114346">
        <ele>166.073875</ele>
        <time>2023-04-02T08:23:02.000Z</time>
      </trkpt>
      <trkpt lat="52.415222" lon="-2.114112">
        <ele>167.144081</ele>
        <time>2023-04-02T08:23:04.000Z</time>
      </trkpt>
      <trkpt lat="52.415135" lon="-2.113887">
        <ele>168.164037</ele>
        <time>2023-04-02T08:23:06.000Z</time>
      </trkpt>
      <trkpt lat="52.414939" lon="-2.113409">
        <ele>169.177206</ele>
        <time>2023-04-02T08:23:10.000Z</time>
      </trkpt>
      <trkpt lat="52.414088" lon="-2.112674">
        <ele>171.344255</ele>
        <time>2023-04-02T08:23:21.000Z</time>
      </trkpt>
      <trkpt lat="52.413918" lon="-2.112557">
        <ele>171.718093</ele>
        <time>2023-04-02T08:23:23.000Z</time>
      </trkpt>
      <trkpt lat="52.413491" lon="-2.111956">
        <ele>171.930615</ele>
        <time>2023-04-02T08:23:29.000Z</time>
      </trkpt>
      <trkpt lat="52.413257" lon="-2.111852">
        <ele>171.248534</ele>
        <time>2023-04-02T08:23:32.000Z</time>
      </trkpt>
      <trkpt lat="52.413117" lon="-2.111766">
        <ele>170.866199</ele>
        <time>2023-04-02T08:23:34.000Z</time>
      </trkpt>
      <trkpt lat="52.41284" lon="-2.111429">
        <ele>169.916033</ele>
        <time>2023-04-02T08:23:38.000Z</time>
      </trkpt>
      <trkpt lat="52.412461" lon="-2.110817">
        <ele>168.473035</ele>
        <time>2023-04-02T08:23:44.000Z</time>
      </trkpt>
      <trkpt lat="52.412382" lon="-2.110636">
        <ele>168.103974</ele>
        <time>2023-04-02T08:23:46.000Z</time>
      </trkpt>
      <trkpt lat="52.412301" lon="-2.11037">
        <ele>167.669892</ele>
        <time>2023-04-02T08:23:48.000Z</time>
      </trkpt>
      <trkpt lat="52.412263" lon="-2.110029">
        <ele>167.974023</ele>
        <time>2023-04-02T08:23:50.000Z</time>
      </trkpt>
      <trkpt lat="52.41231" lon="-2.109643">
        <ele>168.317066</ele>
        <time>2023-04-02T08:23:53.000Z</time>
      </trkpt>
      <trkpt lat="52.412342" lon="-2.109105">
        <ele>168.796263</ele>
        <time>2023-04-02T08:23:57.000Z</time>
      </trkpt>
      <trkpt lat="52.412327" lon="-2.108978">
        <ele>168.919419</ele>
        <time>2023-04-02T08:23:58.000Z</time>
      </trkpt>
      <trkpt lat="52.412135" lon="-2.108253">
        <ele>169.607629</ele>
        <time>2023-04-02T08:24:03.000Z</time>
      </trkpt>
      <trkpt lat="52.412083" lon="-2.107842">
        <ele>169.983916</ele>
        <time>2023-04-02T08:24:06.000Z</time>
      </trkpt>
      <trkpt lat="52.412075" lon="-2.107733">
        <ele>170.07688</ele>
        <time>2023-04-02T08:24:07.000Z</time>
      </trkpt>
      <trkpt lat="52.412066" lon="-2.107322">
        <ele>171.00266</ele>
        <time>2023-04-02T08:24:10.000Z</time>
      </trkpt>
      <trkpt lat="52.412158" lon="-2.106854">
        <ele>172.860597</ele>
        <time>2023-04-02T08:24:13.000Z</time>
      </trkpt>
      <trkpt lat="52.412366" lon="-2.106668">
        <ele>174.376111</ele>
        <time>2023-04-02T08:24:16.000Z</time>
      </trkpt>
      <trkpt lat="52.412506" lon="-2.106472">
        <ele>175.583262</ele>
        <time>2023-04-02T08:24:18.000Z</time>
      </trkpt>
      <trkpt lat="52.412623" lon="-2.106309">
        <ele>176.507361</ele>
        <time>2023-04-02T08:24:20.000Z</time>
      </trkpt>
      <trkpt lat="52.413026" lon="-2.105535">
        <ele>180.419032</ele>
        <time>2023-04-02T08:24:27.000Z</time>
      </trkpt>
      <trkpt lat="52.413217" lon="-2.10501">
        <ele>182.685415</ele>
        <time>2023-04-02T08:24:31.000Z</time>
      </trkpt>
      <trkpt lat="52.413423" lon="-2.104572">
        <ele>184.880115</ele>
        <time>2023-04-02T08:24:35.000Z</time>
      </trkpt>
      <trkpt lat="52.4136" lon="-2.10412">
        <ele>186.936936</ele>
        <time>2023-04-02T08:24:39.000Z</time>
      </trkpt>
      <trkpt lat="52.4137" lon="-2.103824">
        <ele>188.188018</ele>
        <time>2023-04-02T08:24:41.000Z</time>
      </trkpt>
      <trkpt lat="52.413754" lon="-2.10309">
        <ele>191.102467</ele>
        <time>2023-04-02T08:24:46.000Z</time>
      </trkpt>
      <trkpt lat="52.413867" lon="-2.102345">
        <ele>193.694404</ele>
        <time>2023-04-02T08:24:51.000Z</time>
      </trkpt>
      <trkpt lat="52.413888" lon="-2.102281">
        <ele>193.885607</ele>
        <time>2023-04-02T08:24:51.000Z</time>
      </trkpt>
      <trkpt lat="52.414083" lon="-2.101317">
        <ele>196.591371</ele>
        <time>2023-04-02T08:24:58.000Z</time>
      </trkpt>
      <trkpt lat="52.414397" lon="-2.100579">
        <ele>199.009377</ele>
        <time>2023-04-02T08:25:04.000Z</time>
      </trkpt>
      <trkpt lat="52.414488" lon="-2.100348">
        <ele>199.744975</ele>
        <time>2023-04-02T08:25:06.000Z</time>
      </trkpt>
      <trkpt lat="52.414795" lon="-2.099626">
        <ele>202.058546</ele>
        <time>2023-04-02T08:25:12.000Z</time>
      </trkpt>
      <trkpt lat="52.415238" lon="-2.098821">
        <ele>204.875609</ele>
        <time>2023-04-02T08:25:19.000Z</time>
      </trkpt>
      <trkpt lat="52.415696" lon="-2.098208">
        <ele>207.41203</ele>
        <time>2023-04-02T08:25:26.000Z</time>
      </trkpt>
      <trkpt lat="52.416511" lon="-2.097518">
        <ele>211.509269</ele>
        <time>2023-04-02T08:25:36.000Z</time>
      </trkpt>
      <trkpt lat="52.416811" lon="-2.097081">
        <ele>213.262357</ele>
        <time>2023-04-02T08:25:40.000Z</time>
      </trkpt>
      <trkpt lat="52.417054" lon="-2.096812">
        <ele>214.62333</ele>
        <time>2023-04-02T08:25:43.000Z</time>
      </trkpt>
      <trkpt lat="52.41716" lon="-2.096653">
        <ele>215.263114</ele>
        <time>2023-04-02T08:25:45.000Z</time>
      </trkpt>
      <trkpt lat="52.41734" lon="-2.096236">
        <ele>216.708868</ele>
        <time>2023-04-02T08:25:48.000Z</time>
      </trkpt>
      <trkpt lat="52.417507" lon="-2.095899">
        <ele>218.026391</ele>
        <time>2023-04-02T08:25:51.000Z</time>
      </trkpt>
      <trkpt lat="52.417857" lon="-2.095382">
        <ele>220.527122</ele>
        <time>2023-04-02T08:25:56.000Z</time>
      </trkpt>
      <trkpt lat="52.418096" lon="-2.095141">
        <ele>222.061586</ele>
        <time>2023-04-02T08:25:59.000Z</time>
      </trkpt>
      <trkpt lat="52.418575" lon="-2.095007">
        <ele>224.521426</ele>
        <time>2023-04-02T08:26:04.000Z</time>
      </trkpt>
      <trkpt lat="52.418635" lon="-2.094938">
        <ele>224.942489</ele>
        <time>2023-04-02T08:26:05.000Z</time>
      </trkpt>
      <trkpt lat="52.418718" lon="-2.094821">
        <ele>225.491857</ele>
        <time>2023-04-02T08:26:06.000Z</time>
      </trkpt>
      <trkpt lat="52.418784" lon="-2.094672">
        <ele>226.13116</ele>
        <time>2023-04-02T08:26:07.000Z</time>
      </trkpt>
      <trkpt lat="52.418987" lon="-2.093956">
        <ele>229.47412</ele>
        <time>2023-04-02T08:26:12.000Z</time>
      </trkpt>
      <trkpt lat="52.41913" lon="-2.09366">
        <ele>231.06674</ele>
        <time>2023-04-02T08:26:15.000Z</time>
      </trkpt>
      <trkpt lat="52.419359" lon="-2.093367">
        <ele>233.09842</ele>
        <time>2023-04-02T08:26:18.000Z</time>
      </trkpt>
      <trkpt lat="52.420043" lon="-2.092862">
        <ele>238.261231</ele>
        <time>2023-04-02T08:26:26.000Z</time>
      </trkpt>
      <trkpt lat="52.420286" lon="-2.092642">
        <ele>240.24287</ele>
        <time>2023-04-02T08:26:29.000Z</time>
      </trkpt>
      <trkpt lat="52.420445" lon="-2.092445">
        <ele>241.536587</ele>
        <time>2023-04-02T08:26:31.000Z</time>
      </trkpt>
      <trkpt lat="52.421377" lon="-2.090663">
        <ele>251.411058</ele>
        <time>2023-04-02T08:26:47.000Z</time>
      </trkpt>
      <trkpt lat="52.421424" lon="-2.090548">
        <ele>251.761468</ele>
        <time>2023-04-02T08:26:48.000Z</time>
      </trkpt>
      <trkpt lat="52.421601" lon="-2.090178">
        <ele>252.973408</ele>
        <time>2023-04-02T08:26:51.000Z</time>
      </trkpt>
      <trkpt lat="52.421716" lon="-2.089913">
        <ele>253.83344</ele>
        <time>2023-04-02T08:26:53.000Z</time>
      </trkpt>
      <trkpt lat="52.42187" lon="-2.089611">
        <ele>254.857463</ele>
        <time>2023-04-02T08:26:56.000Z</time>
      </trkpt>
      <trkpt lat="52.421764" lon="-2.089252">
        <ele>255.897278</ele>
        <time>2023-04-02T08:26:59.000Z</time>
      </trkpt>
      <trkpt lat="52.421631" lon="-2.088986">
        <ele>256.775683</ele>
        <time>2023-04-02T08:27:01.000Z</time>
      </trkpt>
      <trkpt lat="52.421083" lon="-2.088435">
        <ele>259.609602</ele>
        <time>2023-04-02T08:27:08.000Z</time>
      </trkpt>
      <trkpt lat="52.420976" lon="-2.088253">
        <ele>260.335059</ele>
        <time>2023-04-02T08:27:10.000Z</time>
      </trkpt>
      <trkpt lat="52.420928" lon="-2.088071">
        <ele>260.88147</ele>
        <time>2023-04-02T08:27:11.000Z</time>
      </trkpt>
      <trkpt lat="52.420676" lon="-2.08639">
        <ele>265.843176</ele>
        <time>2023-04-02T08:27:23.000Z</time>
      </trkpt>
      <trkpt lat="52.420584" lon="-2.08595">
        <ele>267.196871</ele>
        <time>2023-04-02T08:27:26.000Z</time>
      </trkpt>
      <trkpt lat="52.420475" lon="-2.085533">
        <ele>268.081115</ele>
        <time>2023-04-02T08:27:29.000Z</time>
      </trkpt>
      <trkpt lat="52.420279" lon="-2.085058">
        <ele>269.117597</ele>
        <time>2023-04-02T08:27:33.000Z</time>
      </trkpt>
      <trkpt lat="52.420096" lon="-2.084601">
        <ele>270.155506</ele>
        <time>2023-04-02T08:27:37.000Z</time>
      </trkpt>
      <trkpt lat="52.419784" lon="-2.083768">
        <ele>271.978698</ele>
        <time>2023-04-02T08:27:44.000Z</time>
      </trkpt>
      <trkpt lat="52.419692" lon="-2.083331">
        <ele>272.510823</ele>
        <time>2023-04-02T08:27:47.000Z</time>
      </trkpt>
      <trkpt lat="52.419677" lon="-2.083034">
        <ele>271.601123</ele>
        <time>2023-04-02T08:27:49.000Z</time>
      </trkpt>
      <trkpt lat="52.419644" lon="-2.082858">
        <ele>270.99028</ele>
        <time>2023-04-02T08:27:50.000Z</time>
      </trkpt>
      <trkpt lat="52.419477" lon="-2.082466">
        <ele>269.507577</ele>
        <time>2023-04-02T08:27:53.000Z</time>
      </trkpt>
      <trkpt lat="52.419323" lon="-2.082246">
        <ele>268.470717</ele>
        <time>2023-04-02T08:27:55.000Z</time>
      </trkpt>
      <trkpt lat="52.419135" lon="-2.082152">
        <ele>267.497966</ele>
        <time>2023-04-02T08:27:57.000Z</time>
      </trkpt>
      <trkpt lat="52.419024" lon="-2.08174">
        <ele>266.083837</ele>
        <time>2023-04-02T08:28:00.000Z</time>
      </trkpt>
      <trkpt lat="52.418946" lon="-2.081217">
        <ele>264.392796</ele>
        <time>2023-04-02T08:28:04.000Z</time>
      </trkpt>
      <trkpt lat="52.418913" lon="-2.080456">
        <ele>261.904777</ele>
        <time>2023-04-02T08:28:09.000Z</time>
      </trkpt>
      <trkpt lat="52.41882" lon="-2.079682">
        <ele>259.168783</ele>
        <time>2023-04-02T08:28:14.000Z</time>
      </trkpt>
      <trkpt lat="52.418619" lon="-2.078867">
        <ele>256.164091</ele>
        <time>2023-04-02T08:28:20.000Z</time>
      </trkpt>
      <trkpt lat="52.418549" lon="-2.07862">
        <ele>255.187264</ele>
        <time>2023-04-02T08:28:22.000Z</time>
      </trkpt>
      <trkpt lat="52.41837" lon="-2.078383">
        <ele>253.949677</ele>
        <time>2023-04-02T08:28:25.000Z</time>
      </trkpt>
      <trkpt lat="52.417947" lon="-2.078016">
        <ele>251.57549</ele>
        <time>2023-04-02T08:28:30.000Z</time>
      </trkpt>
      <trkpt lat="52.417676" lon="-2.077286">
        <ele>249.159135</ele>
        <time>2023-04-02T08:28:36.000Z</time>
      </trkpt>
      <trkpt lat="52.417223" lon="-2.076177">
        <ele>245.436868</ele>
        <time>2023-04-02T08:28:45.000Z</time>
      </trkpt>
      <trkpt lat="52.417142" lon="-2.076057">
        <ele>244.907976</ele>
        <time>2023-04-02T08:28:46.000Z</time>
      </trkpt>
      <trkpt lat="52.416382" lon="-2.07541">
        <ele>240.127804</ele>
        <time>2023-04-02T08:28:56.000Z</time>
      </trkpt>
      <trkpt lat="52.416242" lon="-2.075236">
        <ele>239.156414</ele>
        <time>2023-04-02T08:28:58.000Z</time>
      </trkpt>
      <trkpt lat="52.416058" lon="-2.074963">
        <ele>237.788606</ele>
        <time>2023-04-02T08:29:01.000Z</time>
      </trkpt>
      <trkpt lat="52.415664" lon="-2.074422">
        <ele>234.928535</ele>
        <time>2023-04-02T08:29:07.000Z</time>
      </trkpt>
      <trkpt lat="52.415474" lon="-2.074225">
        <ele>234.071483</ele>
        <time>2023-04-02T08:29:10.000Z</time>
      </trkpt>
      <trkpt lat="52.41508" lon="-2.073876">
        <ele>232.317925</ele>
        <time>2023-04-02T08:29:15.000Z</time>
      </trkpt>
      <trkpt lat="52.414722" lon="-2.073652">
        <ele>230.837736</ele>
        <time>2023-04-02T08:29:19.000Z</time>
      </trkpt>
      <trkpt lat="52.414623" lon="-2.07319">
        <ele>229.724113</ele>
        <time>2023-04-02T08:29:22.000Z</time>
      </trkpt>
      <trkpt lat="52.414614" lon="-2.073125">
        <ele>229.56263</ele>
        <time>2023-04-02T08:29:22.000Z</time>
      </trkpt>
      <trkpt lat="52.414443" lon="-2.072641">
        <ele>228.263553</ele>
        <time>2023-04-02T08:29:26.000Z</time>
      </trkpt>
      <trkpt lat="52.414377" lon="-2.072285">
        <ele>228.129253</ele>
        <time>2023-04-02T08:29:29.000Z</time>
      </trkpt>
      <trkpt lat="52.414403" lon="-2.070434">
        <ele>228.152224</ele>
        <time>2023-04-02T08:29:42.000Z</time>
      </trkpt>
      <trkpt lat="52.414395" lon="-2.069905">
        <ele>228.158649</ele>
        <time>2023-04-02T08:29:46.000Z</time>
      </trkpt>
      <trkpt lat="52.414467" lon="-2.069533">
        <ele>228.238395</ele>
        <time>2023-04-02T08:29:49.000Z</time>
      </trkpt>
      <trkpt lat="52.414575" lon="-2.069255">
        <ele>228.446612</ele>
        <time>2023-04-02T08:29:51.000Z</time>
      </trkpt>
      <trkpt lat="52.414704" lon="-2.069098">
        <ele>228.59937</ele>
        <time>2023-04-02T08:29:53.000Z</time>
      </trkpt>
      <trkpt lat="52.414925" lon="-2.068954">
        <ele>228.839548</ele>
        <time>2023-04-02T08:29:56.000Z</time>
      </trkpt>
      <trkpt lat="52.415093" lon="-2.068823">
        <ele>229.039216</ele>
        <time>2023-04-02T08:29:58.000Z</time>
      </trkpt>
      <trkpt lat="52.415385" lon="-2.068545">
        <ele>229.364301</ele>
        <time>2023-04-02T08:30:02.000Z</time>
      </trkpt>
      <trkpt lat="52.415731" lon="-2.067835">
        <ele>229.920644</ele>
        <time>2023-04-02T08:30:08.000Z</time>
      </trkpt>
      <trkpt lat="52.415834" lon="-2.067642">
        <ele>229.793601</ele>
        <time>2023-04-02T08:30:10.000Z</time>
      </trkpt>
      <trkpt lat="52.415962" lon="-2.067451">
        <ele>229.565017</ele>
        <time>2023-04-02T08:30:12.000Z</time>
      </trkpt>
      <trkpt lat="52.4166" lon="-2.066779">
        <ele>228.548676</ele>
        <time>2023-04-02T08:30:20.000Z</time>
      </trkpt>
      <trkpt lat="52.417021" lon="-2.066323">
        <ele>227.870499</ele>
        <time>2023-04-02T08:30:26.000Z</time>
      </trkpt>
      <trkpt lat="52.417195" lon="-2.066559">
        <ele>227.577951</ele>
        <time>2023-04-02T08:30:29.000Z</time>
      </trkpt>
      <trkpt lat="52.417769" lon="-2.067254">
        <ele>226.900238</ele>
        <time>2023-04-02T08:30:37.000Z</time>
      </trkpt>
      <trkpt lat="52.418222" lon="-2.067885">
        <ele>226.353938</ele>
        <time>2023-04-02T08:30:44.000Z</time>
      </trkpt>
      <trkpt lat="52.418294" lon="-2.068007">
        <ele>226.248969</ele>
        <time>2023-04-02T08:30:45.000Z</time>
      </trkpt>
      <trkpt lat="52.418475" lon="-2.068448">
        <ele>225.948843</ele>
        <time>2023-04-02T08:30:49.000Z</time>
      </trkpt>
      <trkpt lat="52.418646" lon="-2.069469">
        <ele>226.962125</ele>
        <time>2023-04-02T08:30:56.000Z</time>
      </trkpt>
      <trkpt lat="52.418748" lon="-2.069923">
        <ele>227.538354</ele>
        <time>2023-04-02T08:30:59.000Z</time>
      </trkpt>
      <trkpt lat="52.418933" lon="-2.070471">
        <ele>228.31524</ele>
        <time>2023-04-02T08:31:03.000Z</time>
      </trkpt>
      <trkpt lat="52.419187" lon="-2.071222">
        <ele>229.335601</ele>
        <time>2023-04-02T08:31:09.000Z</time>
      </trkpt>
      <trkpt lat="52.419562" lon="-2.072279">
        <ele>232.100406</ele>
        <time>2023-04-02T08:31:17.000Z</time>
      </trkpt>
      <trkpt lat="52.419696" lon="-2.072849">
        <ele>233.493445</ele>
        <time>2023-04-02T08:31:21.000Z</time>
      </trkpt>
      <trkpt lat="52.419821" lon="-2.073515">
        <ele>235.128993</ele>
        <time>2023-04-02T08:31:26.000Z</time>
      </trkpt>
      <trkpt lat="52.419848" lon="-2.073719">
        <ele>235.646065</ele>
        <time>2023-04-02T08:31:27.000Z</time>
      </trkpt>
      <trkpt lat="52.41982" lon="-2.073913">
        <ele>236.101173</ele>
        <time>2023-04-02T08:31:28.000Z</time>
      </trkpt>
      <trkpt lat="52.419736" lon="-2.074473">
        <ele>236.816038</ele>
        <time>2023-04-02T08:31:32.000Z</time>
      </trkpt>
      <trkpt lat="52.419773" lon="-2.074726">
        <ele>237.110938</ele>
        <time>2023-04-02T08:31:34.000Z</time>
      </trkpt>
      <trkpt lat="52.420014" lon="-2.07535">
        <ele>237.941724</ele>
        <time>2023-04-02T08:31:39.000Z</time>
      </trkpt>
      <trkpt lat="52.420343" lon="-2.075925">
        <ele>238.840657</ele>
        <time>2023-04-02T08:31:44.000Z</time>
      </trkpt>
      <trkpt lat="52.420463" lon="-2.076214">
        <ele>239.238354</ele>
        <time>2023-04-02T08:31:46.000Z</time>
      </trkpt>
      <trkpt lat="52.420701" lon="-2.076887">
        <ele>239.143512</ele>
        <time>2023-04-02T08:31:51.000Z</time>
      </trkpt>
      <trkpt lat="52.420872" lon="-2.077483">
        <ele>238.494321</ele>
        <time>2023-04-02T08:31:55.000Z</time>
      </trkpt>
      <trkpt lat="52.421002" lon="-2.077851">
        <ele>238.080893</ele>
        <time>2023-04-02T08:31:58.000Z</time>
      </trkpt>
      <trkpt lat="52.421273" lon="-2.078431">
        <ele>237.355271</ele>
        <time>2023-04-02T08:32:03.000Z</time>
      </trkpt>
      <trkpt lat="52.421443" lon="-2.078806">
        <ele>236.880612</ele>
        <time>2023-04-02T08:32:06.000Z</time>
      </trkpt>
      <trkpt lat="52.422465" lon="-2.080695">
        <ele>232.62902</ele>
        <time>2023-04-02T08:32:23.000Z</time>
      </trkpt>
      <trkpt lat="52.42286" lon="-2.081629">
        <ele>229.449748</ele>
        <time>2023-04-02T08:32:31.000Z</time>
      </trkpt>
      <trkpt lat="52.422911" lon="-2.081693">
        <ele>228.975091</ele>
        <time>2023-04-02T08:32:32.000Z</time>
      </trkpt>
      <trkpt lat="52.423195" lon="-2.08178">
        <ele>227.01558</ele>
        <time>2023-04-02T08:32:35.000Z</time>
      </trkpt>
      <trkpt lat="52.423891" lon="-2.081738">
        <ele>222.414399</ele>
        <time>2023-04-02T08:32:43.000Z</time>
      </trkpt>
      <trkpt lat="52.423968" lon="-2.08171">
        <ele>221.851361</ele>
        <time>2023-04-02T08:32:44.000Z</time>
      </trkpt>
      <trkpt lat="52.424443" lon="-2.081516">
        <ele>218.11698</ele>
        <time>2023-04-02T08:32:49.000Z</time>
      </trkpt>
      <trkpt lat="52.424737" lon="-2.081302">
        <ele>214.757136</ele>
        <time>2023-04-02T08:32:53.000Z</time>
      </trkpt>
      <trkpt lat="52.424921" lon="-2.081097">
        <ele>212.460701</ele>
        <time>2023-04-02T08:32:55.000Z</time>
      </trkpt>
      <trkpt lat="52.4251" lon="-2.080834">
        <ele>210.046509</ele>
        <time>2023-04-02T08:32:58.000Z</time>
      </trkpt>
      <trkpt lat="52.42568" lon="-2.080293">
        <ele>203.043004</ele>
        <time>2023-04-02T08:33:05.000Z</time>
      </trkpt>
      <trkpt lat="52.426083" lon="-2.079893">
        <ele>199.224769</ele>
        <time>2023-04-02T08:33:10.000Z</time>
      </trkpt>
      <trkpt lat="52.426415" lon="-2.079381">
        <ele>196.220463</ele>
        <time>2023-04-02T08:33:15.000Z</time>
      </trkpt>
      <trkpt lat="52.427255" lon="-2.078322">
        <ele>189.359441</ele>
        <time>2023-04-02T08:33:27.000Z</time>
      </trkpt>
      <trkpt lat="52.427436" lon="-2.07816">
        <ele>188.536185</ele>
        <time>2023-04-02T08:33:29.000Z</time>
      </trkpt>
      <trkpt lat="52.427884" lon="-2.077879">
        <ele>186.601581</ele>
        <time>2023-04-02T08:33:34.000Z</time>
      </trkpt>
      <trkpt lat="52.428554" lon="-2.077686">
        <ele>183.928633</ele>
        <time>2023-04-02T08:33:42.000Z</time>
      </trkpt>
      <trkpt lat="52.428887" lon="-2.07752">
        <ele>182.557006</ele>
        <time>2023-04-02T08:33:46.000Z</time>
      </trkpt>
      <trkpt lat="52.429844" lon="-2.077253">
        <ele>178.271214</ele>
        <time>2023-04-02T08:33:57.000Z</time>
      </trkpt>
      <trkpt lat="52.430586" lon="-2.076698">
        <ele>174.542061</ele>
        <time>2023-04-02T08:34:06.000Z</time>
      </trkpt>
      <trkpt lat="52.43085" lon="-2.076441">
        <ele>173.349456</ele>
        <time>2023-04-02T08:34:09.000Z</time>
      </trkpt>
      <trkpt lat="52.431821" lon="-2.07506">
        <ele>168.723623</ele>
        <time>2023-04-02T08:34:23.000Z</time>
      </trkpt>
      <trkpt lat="52.432279" lon="-2.074241">
        <ele>166.300578</ele>
        <time>2023-04-02T08:34:31.000Z</time>
      </trkpt>
      <trkpt lat="52.433005" lon="-2.073624">
        <ele>163.49846</ele>
        <time>2023-04-02T08:34:40.000Z</time>
      </trkpt>
      <trkpt lat="52.433415" lon="-2.073391">
        <ele>161.943995</ele>
        <time>2023-04-02T08:34:45.000Z</time>
      </trkpt>
      <trkpt lat="52.433642" lon="-2.073255">
        <ele>161.101639</ele>
        <time>2023-04-02T08:34:48.000Z</time>
      </trkpt>
      <trkpt lat="52.433846" lon="-2.072998">
        <ele>159.894277</ele>
        <time>2023-04-02T08:34:51.000Z</time>
      </trkpt>
      <trkpt lat="52.434312" lon="-2.072705">
        <ele>157.608093</ele>
        <time>2023-04-02T08:34:57.000Z</time>
      </trkpt>
      <trkpt lat="52.434642" lon="-2.072487">
        <ele>155.916944</ele>
        <time>2023-04-02T08:35:01.000Z</time>
      </trkpt>
      <trkpt lat="52.434819" lon="-2.072373">
        <ele>155.047197</ele>
        <time>2023-04-02T08:35:03.000Z</time>
      </trkpt>
      <trkpt lat="52.435174" lon="-2.072177">
        <ele>153.322703</ele>
        <time>2023-04-02T08:35:07.000Z</time>
      </trkpt>
      <trkpt lat="52.435509" lon="-2.072122">
        <ele>152.228019</ele>
        <time>2023-04-02T08:35:11.000Z</time>
      </trkpt>
      <trkpt lat="52.43621" lon="-2.072138">
        <ele>150.316099</ele>
        <time>2023-04-02T08:35:19.000Z</time>
      </trkpt>
      <trkpt lat="52.437345" lon="-2.071508">
        <ele>148.329391</ele>
        <time>2023-04-02T08:35:32.000Z</time>
      </trkpt>
      <trkpt lat="52.437419" lon="-2.0715">
        <ele>148.409969</ele>
        <time>2023-04-02T08:35:33.000Z</time>
      </trkpt>
      <trkpt lat="52.437631" lon="-2.071651">
        <ele>148.622636</ele>
        <time>2023-04-02T08:35:36.000Z</time>
      </trkpt>
      <trkpt lat="52.437656" lon="-2.071934">
        <ele>148.787023</ele>
        <time>2023-04-02T08:35:38.000Z</time>
      </trkpt>
      <trkpt lat="52.437648" lon="-2.072047">
        <ele>148.848735</ele>
        <time>2023-04-02T08:35:39.000Z</time>
      </trkpt>
      <trkpt lat="52.436946" lon="-2.073866">
        <ele>150.59643</ele>
        <time>2023-04-02T08:35:54.000Z</time>
      </trkpt>
      <trkpt lat="52.436786" lon="-2.074382">
        <ele>151.368402</ele>
        <time>2023-04-02T08:35:58.000Z</time>
      </trkpt>
      <trkpt lat="52.436707" lon="-2.074711">
        <ele>151.833228</ele>
        <time>2023-04-02T08:36:00.000Z</time>
      </trkpt>
      <trkpt lat="52.436648" lon="-2.075321">
        <ele>152.64839</ele>
        <time>2023-04-02T08:36:04.000Z</time>
      </trkpt>
      <trkpt lat="52.436686" lon="-2.075937">
        <ele>153.458128</ele>
        <time>2023-04-02T08:36:08.000Z</time>
      </trkpt>
      <trkpt lat="52.436777" lon="-2.076514">
        <ele>154.564232</ele>
        <time>2023-04-02T08:36:12.000Z</time>
      </trkpt>
      <trkpt lat="52.436761" lon="-2.07712">
        <ele>155.720886</ele>
        <time>2023-04-02T08:36:16.000Z</time>
      </trkpt>
      <trkpt lat="52.436732" lon="-2.077292">
        <ele>156.051864</ele>
        <time>2023-04-02T08:36:17.000Z</time>
      </trkpt>
      <trkpt lat="52.436698" lon="-2.077617">
        <ele>156.707056</ele>
        <time>2023-04-02T08:36:19.000Z</time>
      </trkpt>
      <trkpt lat="52.436597" lon="-2.078093">
        <ele>157.655212</ele>
        <time>2023-04-02T08:36:22.000Z</time>
      </trkpt>
      <trkpt lat="52.436167" lon="-2.07951">
        <ele>160.826093</ele>
        <time>2023-04-02T08:36:33.000Z</time>
      </trkpt>
      <trkpt lat="52.435747" lon="-2.081252">
        <ele>164.807927</ele>
        <time>2023-04-02T08:36:46.000Z</time>
      </trkpt>
      <trkpt lat="52.435355" lon="-2.082991">
        <ele>167.57777</ele>
        <time>2023-04-02T08:36:59.000Z</time>
      </trkpt>
      <trkpt lat="52.434988" lon="-2.085239">
        <ele>170.456647</ele>
        <time>2023-04-02T08:37:15.000Z</time>
      </trkpt>
      <trkpt lat="52.43495" lon="-2.085578">
        <ele>170.782281</ele>
        <time>2023-04-02T08:37:17.000Z</time>
      </trkpt>
      <trkpt lat="52.434804" lon="-2.08665">
        <ele>171.851257</ele>
        <time>2023-04-02T08:37:24.000Z</time>
      </trkpt>
      <trkpt lat="52.434257" lon="-2.090515">
        <ele>175.067085</ele>
        <time>2023-04-02T08:37:51.000Z</time>
      </trkpt>
      <trkpt lat="52.434182" lon="-2.091023">
        <ele>175.195521</ele>
        <time>2023-04-02T08:37:55.000Z</time>
      </trkpt>
      <trkpt lat="52.434134" lon="-2.091193">
        <ele>175.242976</ele>
        <time>2023-04-02T08:37:56.000Z</time>
      </trkpt>
      <trkpt lat="52.434053" lon="-2.091363">
        <ele>175.300442</ele>
        <time>2023-04-02T08:37:57.000Z</time>
      </trkpt>
      <trkpt lat="52.433945" lon="-2.091491">
        <ele>175.350713</ele>
        <time>2023-04-02T08:37:58.000Z</time>
      </trkpt>
      <trkpt lat="52.433903" lon="-2.091686">
        <ele>175.400147</ele>
        <time>2023-04-02T08:37:59.000Z</time>
      </trkpt>
      <trkpt lat="52.433934" lon="-2.091896">
        <ele>175.451061</ele>
        <time>2023-04-02T08:38:00.000Z</time>
      </trkpt>
      <trkpt lat="52.433997" lon="-2.092036">
        <ele>175.497288</ele>
        <time>2023-04-02T08:38:01.000Z</time>
      </trkpt>
      <trkpt lat="52.434103" lon="-2.09211">
        <ele>175.543123</ele>
        <time>2023-04-02T08:38:02.000Z</time>
      </trkpt>
      <trkpt lat="52.434223" lon="-2.092101">
        <ele>175.589294</ele>
        <time>2023-04-02T08:38:03.000Z</time>
      </trkpt>
      <trkpt lat="52.43431" lon="-2.092015">
        <ele>175.631737</ele>
        <time>2023-04-02T08:38:04.000Z</time>
      </trkpt>
      <trkpt lat="52.434371" lon="-2.09187">
        <ele>175.674005</ele>
        <time>2023-04-02T08:38:05.000Z</time>
      </trkpt>
      <trkpt lat="52.434385" lon="-2.091701">
        <ele>175.62985</ele>
        <time>2023-04-02T08:38:06.000Z</time>
      </trkpt>
      <trkpt lat="52.434362" lon="-2.091529">
        <ele>175.500197</ele>
        <time>2023-04-02T08:38:07.000Z</time>
      </trkpt>
      <trkpt lat="52.434351" lon="-2.09104">
        <ele>175.126895</ele>
        <time>2023-04-02T08:38:10.000Z</time>
      </trkpt>
      <trkpt lat="52.434604" lon="-2.088878">
        <ele>173.450617</ele>
        <time>2023-04-02T08:38:25.000Z</time>
      </trkpt>
      <trkpt lat="52.43467" lon="-2.088421">
        <ele>173.006038</ele>
        <time>2023-04-02T08:38:28.000Z</time>
      </trkpt>
      <trkpt lat="52.434912" lon="-2.0867">
        <ele>171.385585</ele>
        <time>2023-04-02T08:38:40.000Z</time>
      </trkpt>
      <trkpt lat="52.434941" lon="-2.086431">
        <ele>171.144868</ele>
        <time>2023-04-02T08:38:42.000Z</time>
      </trkpt>
      <trkpt lat="52.434983" lon="-2.086145">
        <ele>170.869577</ele>
        <time>2023-04-02T08:38:44.000Z</time>
      </trkpt>
      <trkpt lat="52.435009" lon="-2.085983">
        <ele>170.715046</ele>
        <time>2023-04-02T08:38:45.000Z</time>
      </trkpt>
      <trkpt lat="52.43532" lon="-2.083767">
        <ele>168.379039</ele>
        <time>2023-04-02T08:39:00.000Z</time>
      </trkpt>
      <trkpt lat="52.435687" lon="-2.081989">
        <ele>165.706219</ele>
        <time>2023-04-02T08:39:13.000Z</time>
      </trkpt>
      <trkpt lat="52.43595" lon="-2.080804">
        <ele>163.614409</ele>
        <time>2023-04-02T08:39:22.000Z</time>
      </trkpt>
      <trkpt lat="52.436515" lon="-2.07872">
        <ele>159.319085</ele>
        <time>2023-04-02T08:39:37.000Z</time>
      </trkpt>
      <trkpt lat="52.436672" lon="-2.078158">
        <ele>158.089881</ele>
        <time>2023-04-02T08:39:41.000Z</time>
      </trkpt>
      <trkpt lat="52.436773" lon="-2.077946">
        <ele>157.594176</ele>
        <time>2023-04-02T08:39:43.000Z</time>
      </trkpt>
      <trkpt lat="52.437042" lon="-2.077557">
        <ele>156.649089</ele>
        <time>2023-04-02T08:39:47.000Z</time>
      </trkpt>
      <trkpt lat="52.437145" lon="-2.077402">
        <ele>156.345725</ele>
        <time>2023-04-02T08:39:49.000Z</time>
      </trkpt>
      <trkpt lat="52.437487" lon="-2.077045">
        <ele>155.447606</ele>
        <time>2023-04-02T08:39:54.000Z</time>
      </trkpt>
      <trkpt lat="52.43751" lon="-2.077021">
        <ele>155.384157</ele>
        <time>2023-04-02T08:39:54.000Z</time>
      </trkpt>
      <trkpt lat="52.437706" lon="-2.076852">
        <ele>154.930168</ele>
        <time>2023-04-02T08:39:56.000Z</time>
      </trkpt>
      <trkpt lat="52.437842" lon="-2.07665">
        <ele>154.511834</ele>
        <time>2023-04-02T08:39:58.000Z</time>
      </trkpt>
      <trkpt lat="52.437914" lon="-2.076559">
        <ele>154.322994</ele>
        <time>2023-04-02T08:39:59.000Z</time>
      </trkpt>
      <trkpt lat="52.43835" lon="-2.075877">
        <ele>153.001263</ele>
        <time>2023-04-02T08:40:06.000Z</time>
      </trkpt>
      <trkpt lat="52.438466" lon="-2.075656">
        <ele>152.609439</ele>
        <time>2023-04-02T08:40:08.000Z</time>
      </trkpt>
      <trkpt lat="52.438857" lon="-2.074686">
        <ele>151.052589</ele>
        <time>2023-04-02T08:40:16.000Z</time>
      </trkpt>
      <trkpt lat="52.43936" lon="-2.07338">
        <ele>149.204783</ele>
        <time>2023-04-02T08:40:26.000Z</time>
      </trkpt>
      <trkpt lat="52.43977" lon="-2.072203">
        <ele>148.819518</ele>
        <time>2023-04-02T08:40:35.000Z</time>
      </trkpt>
      <trkpt lat="52.440378" lon="-2.07052">
        <ele>149.200652</ele>
        <time>2023-04-02T08:40:48.000Z</time>
      </trkpt>
      <trkpt lat="52.440603" lon="-2.070044">
        <ele>150.123954</ele>
        <time>2023-04-02T08:40:52.000Z</time>
      </trkpt>
      <trkpt lat="52.44068" lon="-2.069945">
        <ele>150.371214</ele>
        <time>2023-04-02T08:40:53.000Z</time>
      </trkpt>
      <trkpt lat="52.44123" lon="-2.069238">
        <ele>152.065839</ele>
        <time>2023-04-02T08:41:01.000Z</time>
      </trkpt>
      <trkpt lat="52.441319" lon="-2.06911">
        <ele>152.366008</ele>
        <time>2023-04-02T08:41:02.000Z</time>
      </trkpt>
      <trkpt lat="52.441616" lon="-2.068723">
        <ele>153.462262</ele>
        <time>2023-04-02T08:41:06.000Z</time>
      </trkpt>
      <trkpt lat="52.441781" lon="-2.068486">
        <ele>154.250576</ele>
        <time>2023-04-02T08:41:08.000Z</time>
      </trkpt>
      <trkpt lat="52.441897" lon="-2.068322">
        <ele>154.750738</ele>
        <time>2023-04-02T08:41:10.000Z</time>
      </trkpt>
      <trkpt lat="52.442057" lon="-2.068049">
        <ele>155.560144</ele>
        <time>2023-04-02T08:41:13.000Z</time>
      </trkpt>
      <trkpt lat="52.442256" lon="-2.067671">
        <ele>156.608964</ele>
        <time>2023-04-02T08:41:16.000Z</time>
      </trkpt>
      <trkpt lat="52.442337" lon="-2.067557">
        <ele>156.961707</ele>
        <time>2023-04-02T08:41:17.000Z</time>
      </trkpt>
      <trkpt lat="52.442521" lon="-2.06697">
        <ele>158.32637</ele>
        <time>2023-04-02T08:41:21.000Z</time>
      </trkpt>
      <trkpt lat="52.442537" lon="-2.066879">
        <ele>158.523788</ele>
        <time>2023-04-02T08:41:22.000Z</time>
      </trkpt>
      <trkpt lat="52.442575" lon="-2.066783">
        <ele>158.777945</ele>
        <time>2023-04-02T08:41:23.000Z</time>
      </trkpt>
      <trkpt lat="52.442775" lon="-2.066">
        <ele>160.261887</ele>
        <time>2023-04-02T08:41:29.000Z</time>
      </trkpt>
      <trkpt lat="52.442867" lon="-2.065579">
        <ele>161.006319</ele>
        <time>2023-04-02T08:41:32.000Z</time>
      </trkpt>
      <trkpt lat="52.442962" lon="-2.06527">
        <ele>161.610982</ele>
        <time>2023-04-02T08:41:34.000Z</time>
      </trkpt>
      <trkpt lat="52.44309" lon="-2.065015">
        <ele>162.178116</ele>
        <time>2023-04-02T08:41:36.000Z</time>
      </trkpt>
      <trkpt lat="52.443713" lon="-2.063907">
        <ele>163.954858</ele>
        <time>2023-04-02T08:41:46.000Z</time>
      </trkpt>
      <trkpt lat="52.443912" lon="-2.063552">
        <ele>163.889144</ele>
        <time>2023-04-02T08:41:49.000Z</time>
      </trkpt>
      <trkpt lat="52.444102" lon="-2.063">
        <ele>163.803858</ele>
        <time>2023-04-02T08:41:53.000Z</time>
      </trkpt>
      <trkpt lat="52.44424" lon="-2.062348">
        <ele>163.708334</ele>
        <time>2023-04-02T08:41:58.000Z</time>
      </trkpt>
      <trkpt lat="52.444341" lon="-2.061715">
        <ele>163.621213</ele>
        <time>2023-04-02T08:42:02.000Z</time>
      </trkpt>
      <trkpt lat="52.444335" lon="-2.061658">
        <ele>163.61332</ele>
        <time>2023-04-02T08:42:02.000Z</time>
      </trkpt>
      <trkpt lat="52.4443" lon="-2.0609">
        <ele>162.072332</ele>
        <time>2023-04-02T08:42:07.000Z</time>
      </trkpt>
      <trkpt lat="52.444285" lon="-2.060351">
        <ele>160.942688</ele>
        <time>2023-04-02T08:42:11.000Z</time>
      </trkpt>
      <trkpt lat="52.44422" lon="-2.059567">
        <ele>159.346742</ele>
        <time>2023-04-02T08:42:16.000Z</time>
      </trkpt>
      <trkpt lat="52.444242" lon="-2.058854">
        <ele>157.881376</ele>
        <time>2023-04-02T08:42:21.000Z</time>
      </trkpt>
      <trkpt lat="52.444303" lon="-2.058403">
        <ele>157.111882</ele>
        <time>2023-04-02T08:42:24.000Z</time>
      </trkpt>
      <trkpt lat="52.444367" lon="-2.058105">
        <ele>156.668736</ele>
        <time>2023-04-02T08:42:26.000Z</time>
      </trkpt>
      <trkpt lat="52.44448" lon="-2.057661">
        <ele>155.924322</ele>
        <time>2023-04-02T08:42:29.000Z</time>
      </trkpt>
      <trkpt lat="52.444608" lon="-2.057368">
        <ele>155.406767</ele>
        <time>2023-04-02T08:42:31.000Z</time>
      </trkpt>
      <trkpt lat="52.444919" lon="-2.056703">
        <ele>154.145678</ele>
        <time>2023-04-02T08:42:37.000Z</time>
      </trkpt>
      <trkpt lat="52.445007" lon="-2.056532">
        <ele>153.801567</ele>
        <time>2023-04-02T08:42:39.000Z</time>
      </trkpt>
      <trkpt lat="52.445491" lon="-2.05568">
        <ele>151.121768</ele>
        <time>2023-04-02T08:42:47.000Z</time>
      </trkpt>
      <trkpt lat="52.445974" lon="-2.054933">
        <ele>148.105947</ele>
        <time>2023-04-02T08:42:54.000Z</time>
      </trkpt>
      <trkpt lat="52.446335" lon="-2.054443">
        <ele>146.04303</ele>
        <time>2023-04-02T08:42:59.000Z</time>
      </trkpt>
      <trkpt lat="52.446696" lon="-2.053948">
        <ele>143.699907</ele>
        <time>2023-04-02T08:43:04.000Z</time>
      </trkpt>
      <trkpt lat="52.446863" lon="-2.053704">
        <ele>142.642976</ele>
        <time>2023-04-02T08:43:06.000Z</time>
      </trkpt>
      <trkpt lat="52.447211" lon="-2.053112">
        <ele>140.051233</ele>
        <time>2023-04-02T08:43:12.000Z</time>
      </trkpt>
      <trkpt lat="52.447436" lon="-2.052532">
        <ele>137.927437</ele>
        <time>2023-04-02T08:43:17.000Z</time>
      </trkpt>
      <trkpt lat="52.447608" lon="-2.052498">
        <ele>137.130285</ele>
        <time>2023-04-02T08:43:19.000Z</time>
      </trkpt>
      <trkpt lat="52.447663" lon="-2.052471">
        <ele>136.813759</ele>
        <time>2023-04-02T08:43:20.000Z</time>
      </trkpt>
      <trkpt lat="52.447729" lon="-2.052337">
        <ele>136.302922</ele>
        <time>2023-04-02T08:43:21.000Z</time>
      </trkpt>
      <trkpt lat="52.447736" lon="-2.052294">
        <ele>136.161079</ele>
        <time>2023-04-02T08:43:21.000Z</time>
      </trkpt>
      <trkpt lat="52.447714" lon="-2.052151">
        <ele>135.816029</ele>
        <time>2023-04-02T08:43:22.000Z</time>
      </trkpt>
      <trkpt lat="52.447618" lon="-2.052002">
        <ele>135.485753</ele>
        <time>2023-04-02T08:43:23.000Z</time>
      </trkpt>
      <trkpt lat="52.447542" lon="-2.051978">
        <ele>135.29685</ele>
        <time>2023-04-02T08:43:24.000Z</time>
      </trkpt>
      <trkpt lat="52.447388" lon="-2.051833">
        <ele>134.858677</ele>
        <time>2023-04-02T08:43:26.000Z</time>
      </trkpt>
      <trkpt lat="52.447238" lon="-2.051566">
        <ele>134.314915</ele>
        <time>2023-04-02T08:43:28.000Z</time>
      </trkpt>
      <trkpt lat="52.447151" lon="-2.051112">
        <ele>133.618067</ele>
        <time>2023-04-02T08:43:31.000Z</time>
      </trkpt>
      <trkpt lat="52.447135" lon="-2.050821">
        <ele>133.157034</ele>
        <time>2023-04-02T08:43:33.000Z</time>
      </trkpt>
      <trkpt lat="52.447136" lon="-2.049527">
        <ele>131.422180897</ele>
        <time>2023-04-02T08:43:42.000Z</time>
      </trkpt>
      <trkpt lat="52.447183" lon="-2.049524">
        <ele>131.318717792</ele>
        <time>2023-04-02T08:43:43.000Z</time>
      </trkpt>
      <trkpt lat="52.447503" lon="-2.049469">
        <ele>130.610968927</ele>
        <time>2023-04-02T08:43:47.000Z</time>
      </trkpt>
      <trkpt lat="52.44796" lon="-2.049388">
        <ele>129.599867237</ele>
        <time>2023-04-02T08:43:52.000Z</time>
      </trkpt>
      <trkpt lat="52.448058" lon="-2.049438">
        <ele>129.374116884</ele>
        <time>2023-04-02T08:43:53.000Z</time>
      </trkpt>
      <trkpt lat="52.448095" lon="-2.049195">
        <ele>129.03832386</ele>
        <time>2023-04-02T08:43:55.000Z</time>
      </trkpt>
      <trkpt lat="52.448069" lon="-2.048875">
        <ele>128.605517232</ele>
        <time>2023-04-02T08:43:57.000Z</time>
      </trkpt>
      <trkpt lat="52.447978" lon="-2.048538">
        <ele>128.111356941</ele>
        <time>2023-04-02T08:43:59.000Z</time>
      </trkpt>
      <trkpt lat="52.447968" lon="-2.048496">
        <ele>128.050905018</ele>
        <time>2023-04-02T08:43:59.000Z</time>
      </trkpt>
      <trkpt lat="52.447957" lon="-2.048435">
        <ele>127.965620088</ele>
        <time>2023-04-02T08:43:59.000Z</time>
      </trkpt>
    </trkseg>
  </trk>
</gpx>

<!--
Performance optimized by W3 Total Cache. Learn more: https://www.boldgrid.com/w3-total-cache/?utm_source=w3tc&utm_medium=footer_comment&utm_campaign=free_plugin

Page Caching using Disk: Enhanced{w3tc_pagecache_reject_reason} 

Served from: www.aquabike.world @ 2026-05-10 23:57:10 by W3 Total Cache
-->